Time;durP1;ratioP1;P1;durP2;ratioP2;P2;SDS_P1;SDS_P2;PMS_P1;PMS_P2;Temp;Humidity;BMP_temperature;BMP_pressure;BME280_temperature;BME280_humidity;BME280_pressure;Samples;Min_cycle;Max_cycle;Signal;HPM_P1;HPM_P2
2021/10/25 00:01:30;;;;;;;15.48;10.15;;;7.10;99.90;;;;;;5019776;28;20034;-81
2021/10/25 00:03:56;;;;;;;11.73;9.75;;;7.20;99.90;;;;;;5024798;28;20029;-81
2021/10/25 00:06:22;;;;;;;16.05;9.93;;;7.30;99.90;;;;;;5036940;28;20029;-82
2021/10/25 00:08:48;;;;;;;12.27;10.27;;;7.30;99.90;;;;;;5035765;28;20394;-80
2021/10/25 00:11:14;;;;;;;17.48;10.80;;;7.40;99.90;;;;;;5023727;28;20029;-82
2021/10/25 00:13:40;;;;;;;13.80;9.63;;;7.50;99.90;;;;;;5033465;28;20100;-82
2021/10/25 00:16:06;;;;;;;13.45;9.98;;;7.60;99.90;;;;;;5027599;28;20051;-82
2021/10/25 00:18:33;;;;;;;11.35;9.25;;;7.70;99.90;;;;;;5038798;28;20052;-81
2021/10/25 00:20:59;;;;;;;15.27;9.20;;;7.80;99.90;;;;;;5036930;28;20022;-82
2021/10/25 00:23:24;;;;;;;21.92;8.98;;;7.80;99.90;;;;;;5040953;28;20492;-82
2021/10/25 00:25:50;;;;;;;13.13;9.90;;;7.80;99.90;;;;;;5051626;28;20014;-81
2021/10/25 00:28:15;;;;;;;12.88;9.95;;;7.90;99.90;;;;;;5044955;28;20033;-82
2021/10/25 00:30:44;;;;;;;16.98;9.77;;;7.90;99.90;;;;;;5036329;28;20124;-81
2021/10/25 00:33:09;;;;;;;15.68;9.70;;;8.00;99.90;;;;;;5038534;28;20052;-82
2021/10/25 00:35:35;;;;;;;13.43;9.75;;;8.00;99.90;;;;;;5037186;28;20038;-82
2021/10/25 00:38:01;;;;;;;12.70;10.00;;;8.10;99.90;;;;;;5045069;28;20040;-82
2021/10/25 00:40:27;;;;;;;14.10;9.75;;;8.10;99.90;;;;;;5051204;28;20484;-82
2021/10/25 00:42:52;;;;;;;14.65;9.88;;;8.10;99.90;;;;;;5044358;28;20026;-82
2021/10/25 00:45:18;;;;;;;11.23;9.48;;;8.20;99.90;;;;;;5033318;28;20101;-82
2021/10/25 00:47:44;;;;;;;11.90;9.40;;;8.20;99.90;;;;;;5033298;28;20461;-81
2021/10/25 00:50:09;;;;;;;14.80;9.50;;;8.30;99.90;;;;;;5033225;28;20087;-82
2021/10/25 00:52:39;;;;;;;13.48;8.38;;;8.30;99.90;;;;;;5034077;28;20087;-81
2021/10/25 00:55:07;;;;;;;19.33;9.70;;;8.40;99.90;;;;;;5019571;28;20036;-81
2021/10/25 00:57:32;;;;;;;16.23;9.65;;;8.40;99.90;;;;;;5034047;28;20120;-81
2021/10/25 00:59:58;;;;;;;14.32;10.10;;;8.40;99.90;;;;;;5033528;28;20108;-81
2021/10/25 01:02:23;;;;;;;12.38;9.25;;;8.40;99.90;;;;;;5033314;28;20112;-81
2021/10/25 01:04:49;;;;;;;10.50;9.30;;;8.50;99.90;;;;;;5031763;28;20099;-81
2021/10/25 01:07:15;;;;;;;13.27;9.05;;;8.50;99.90;;;;;;5033150;28;20025;-81
2021/10/25 01:09:41;;;;;;;13.75;9.68;;;8.50;99.90;;;;;;5032525;28;20025;-81
2021/10/25 01:12:07;;;;;;;12.00;8.82;;;8.60;99.90;;;;;;5033466;28;20079;-80
2021/10/25 01:14:33;;;;;;;11.32;7.75;;;8.60;99.90;;;;;;5033840;28;20030;-81
2021/10/25 01:16:59;;;;;;;11.38;9.05;;;8.60;99.90;;;;;;5033376;28;20025;-81
2021/10/25 01:19:25;;;;;;;13.93;8.50;;;8.60;99.90;;;;;;5033073;28;20056;-81
2021/10/25 01:21:50;;;;;;;12.63;8.65;;;8.60;99.90;;;;;;5033036;28;20017;-82
2021/10/25 01:24:16;;;;;;;14.13;8.73;;;8.70;99.90;;;;;;5032800;28;20385;-80
2021/10/25 01:26:44;;;;;;;15.80;9.05;;;8.70;99.90;;;;;;5033051;28;20021;-83
2021/10/25 01:29:10;;;;;;;9.38;8.45;;;8.70;99.90;;;;;;5032841;28;20044;-82
2021/10/25 01:31:36;;;;;;;9.75;8.25;;;8.70;99.90;;;;;;5032258;28;20557;-81
2021/10/25 01:34:02;;;;;;;11.55;8.77;;;8.70;99.90;;;;;;5032649;28;20034;-82
2021/10/25 01:36:28;;;;;;;11.23;8.88;;;8.70;99.90;;;;;;5031906;28;20018;-82
2021/10/25 01:38:54;;;;;;;9.38;8.25;;;8.80;99.90;;;;;;5032429;28;20427;-81
2021/10/25 01:41:19;;;;;;;12.27;9.10;;;8.80;99.90;;;;;;5032585;28;20025;-82
2021/10/25 01:43:45;;;;;;;16.23;9.05;;;8.80;99.90;;;;;;5033050;28;20021;-82
2021/10/25 01:46:11;;;;;;;17.73;9.13;;;8.80;99.90;;;;;;5032674;28;20029;-82
2021/10/25 01:48:36;;;;;;;13.30;8.88;;;8.80;99.90;;;;;;5033408;28;20508;-82
2021/10/25 01:51:03;;;;;;;14.93;10.00;;;8.80;99.90;;;;;;5032307;28;20041;-82
2021/10/25 01:53:29;;;;;;;14.73;9.07;;;8.80;99.90;;;;;;5033646;28;20393;-81
2021/10/25 01:55:56;;;;;;;12.40;9.07;;;8.80;99.90;;;;;;5032627;28;20092;-82
2021/10/25 01:58:22;;;;;;;13.57;8.82;;;8.80;99.90;;;;;;5034671;28;20099;-82
2021/10/25 02:00:48;;;;;;;11.00;8.68;;;8.90;99.90;;;;;;5036974;28;20465;-82
2021/10/25 02:03:14;;;;;;;13.00;9.23;;;8.90;99.90;;;;;;5036494;28;20072;-82
2021/10/25 02:05:40;;;;;;;14.85;8.80;;;8.90;99.90;;;;;;5036265;28;20022;-82
2021/10/25 02:08:06;;;;;;;14.57;9.43;;;8.90;99.90;;;;;;5035926;28;20033;-82
2021/10/25 02:10:32;;;;;;;16.92;10.32;;;8.90;99.90;;;;;;5035981;28;20102;-82
2021/10/25 02:12:57;;;;;;;16.05;9.50;;;8.90;99.90;;;;;;5035595;28;20053;-82
2021/10/25 02:15:23;;;;;;;16.85;9.43;;;8.90;99.90;;;;;;5035131;28;20493;-82
2021/10/25 02:17:49;;;;;;;13.45;9.15;;;8.90;99.90;;;;;;5035750;28;20029;-82
2021/10/25 02:20:15;;;;;;;11.90;8.75;;;9.00;99.90;;;;;;5034904;28;20509;-81
2021/10/25 02:22:40;;;;;;;17.02;9.65;;;8.90;99.90;;;;;;5035467;28;20018;-82
2021/10/25 02:25:06;;;;;;;14.35;9.50;;;9.00;99.90;;;;;;5035631;28;20018;-81
2021/10/25 02:27:32;;;;;;;12.73;8.65;;;9.00;99.90;;;;;;5035152;28;20098;-81
2021/10/25 02:29:58;;;;;;;13.25;8.90;;;9.00;99.90;;;;;;5048522;28;20036;-81
2021/10/25 02:32:23;;;;;;;10.73;8.23;;;9.00;99.90;;;;;;5024137;28;20057;-82
2021/10/25 02:34:49;;;;;;;10.90;9.10;;;9.00;99.90;;;;;;5023324;28;20021;-81
2021/10/25 02:37:16;;;;;;;11.18;8.55;;;9.10;99.90;;;;;;5031730;28;20087;-81
2021/10/25 02:39:43;;;;;;;14.93;9.30;;;9.00;99.90;;;;;;5045638;28;20021;-81
2021/10/25 02:42:10;;;;;;;13.45;8.70;;;9.10;99.90;;;;;;5041059;28;20033;-82
2021/10/25 02:44:35;;;;;;;12.40;9.70;;;9.10;99.90;;;;;;5048342;28;20013;-81
2021/10/25 02:47:04;;;;;;;13.32;9.40;;;9.10;99.90;;;;;;5040541;28;20026;-82
2021/10/25 02:49:30;;;;;;;13.80;8.43;;;9.10;99.90;;;;;;5034838;28;20380;-82
2021/10/25 02:51:56;;;;;;;17.17;9.52;;;9.10;99.90;;;;;;5035916;28;20060;-81
2021/10/25 02:54:24;;;;;;;13.10;9.00;;;9.10;99.90;;;;;;5035108;28;20462;-82
2021/10/25 02:56:51;;;;;;;15.60;10.07;;;9.10;99.90;;;;;;5035032;28;20068;-82
2021/10/25 02:59:18;;;;;;;11.38;9.05;;;9.10;99.90;;;;;;5035706;28;20022;-81
2021/10/25 03:01:44;;;;;;;16.65;9.77;;;9.20;99.90;;;;;;5035053;28;20029;-81
2021/10/25 03:04:11;;;;;;;14.00;9.15;;;9.20;99.90;;;;;;5035042;28;20033;-81
2021/10/25 03:06:37;;;;;;;11.48;8.63;;;9.20;99.90;;;;;;5036407;28;20071;-81
2021/10/25 03:09:04;;;;;;;12.35;10.23;;;9.20;99.90;;;;;;5032990;28;20311;-82
2021/10/25 03:11:29;;;;;;;19.10;9.98;;;9.20;99.90;;;;;;5034256;28;20044;-81
2021/10/25 03:13:58;;;;;;;12.35;9.48;;;9.20;99.90;;;;;;5036687;28;20022;-82
2021/10/25 03:16:24;;;;;;;19.27;9.88;;;9.20;99.90;;;;;;5038393;28;20481;-81
2021/10/25 03:18:50;;;;;;;15.85;9.70;;;9.20;99.90;;;;;;5034702;28;20025;-81
2021/10/25 03:21:21;;;;;;;17.40;11.13;;;9.30;99.90;;;;;;5035219;28;20039;-82
2021/10/25 03:23:48;;;;;;;;;;;9.30;99.90;;;;;;5034697;28;20427;-81
2021/10/25 03:26:14;;;;;;;14.23;9.43;;;9.30;99.90;;;;;;5035036;28;20011;-81
2021/10/25 03:28:39;;;;;;;15.32;10.25;;;9.40;99.90;;;;;;5035036;28;20099;-81
2021/10/25 03:31:06;;;;;;;15.05;10.05;;;9.30;99.90;;;;;;5037789;28;20025;-81
2021/10/25 03:33:33;;;;;;;16.67;10.30;;;9.30;99.90;;;;;;5035239;28;20049;-81
2021/10/25 03:36:02;;;;;;;13.93;10.27;;;9.30;99.90;;;;;;5034345;28;20501;-81
2021/10/25 03:38:30;;;;;;;13.60;9.88;;;9.30;99.90;;;;;;5034246;28;20120;-81
2021/10/25 03:40:56;;;;;;;14.38;10.05;;;9.30;99.90;;;;;;5034626;28;20483;-80
2021/10/25 03:43:25;;;;;;;16.38;10.55;;;9.40;99.90;;;;;;5035144;28;20521;-83
2021/10/25 03:45:55;;;;;;;15.55;10.10;;;9.40;99.90;;;;;;5034929;28;20060;-82
2021/10/25 03:50:48;;;;;;;14.25;9.60;;;9.30;99.90;;;;;;5034716;28;20501;-81
2021/10/25 03:53:21;;;;;;;14.35;10.40;;;9.40;99.90;;;;;;5034758;28;20043;-82
2021/10/25 03:59:06;;;;;;;13.45;9.45;;;9.40;99.90;;;;;;4979934;28;20044;-81
2021/10/25 04:04:28;;;;;;;14.93;9.57;;;9.40;99.90;;;;;;5033828;28;20059;-84
2021/10/25 04:28:31;;;;;;;20.42;11.15;;;9.50;99.90;;;;;;5034475;28;20030;-79
2021/10/25 04:31:00;;;;;;;16.25;10.90;;;9.40;99.90;;;;;;5035334;28;20041;-79
2021/10/25 04:33:26;;;;;;;15.00;10.40;;;9.50;99.90;;;;;;5047556;28;20053;-78
2021/10/25 04:35:52;;;;;;;14.68;11.30;;;9.40;99.90;;;;;;5035542;28;20512;-78
2021/10/25 04:38:18;;;;;;;13.82;10.32;;;9.40;99.90;;;;;;5033217;28;20030;-78
2021/10/25 04:40:44;;;;;;;21.85;13.27;;;9.40;99.90;;;;;;5032547;28;20104;-79
2021/10/25 04:43:13;;;;;;;17.35;10.57;;;9.50;99.90;;;;;;5036910;28;20031;-77
2021/10/25 04:45:39;;;;;;;16.52;12.43;;;9.40;99.90;;;;;;5034030;28;20021;-79
2021/10/25 04:48:05;;;;;;;15.77;11.90;;;9.40;99.90;;;;;;5042328;28;20040;-79
2021/10/25 04:50:30;;;;;;;18.80;11.85;;;9.50;99.90;;;;;;5034481;28;20386;-80
2021/10/25 04:52:56;;;;;;;18.98;12.40;;;9.50;99.90;;;;;;5033654;28;20021;-80
2021/10/25 04:55:21;;;;;;;19.77;12.23;;;9.50;99.90;;;;;;5033119;28;20437;-80
2021/10/25 04:57:47;;;;;;;18.73;12.68;;;9.50;99.90;;;;;;5035220;28;20045;-80
2021/10/25 05:00:12;;;;;;;18.77;12.65;;;9.50;99.90;;;;;;5041373;28;20022;-80
2021/10/25 05:02:38;;;;;;;20.77;13.20;;;9.50;99.90;;;;;;5036017;28;20458;-80
2021/10/25 05:05:05;;;;;;;22.10;13.40;;;9.50;99.90;;;;;;5041139;28;20025;-80
2021/10/25 05:07:31;;;;;;;19.48;12.68;;;9.50;99.90;;;;;;5030126;28;20037;-81
2021/10/25 05:09:57;;;;;;;18.35;12.43;;;9.50;99.90;;;;;;5039781;28;20029;-80
2021/10/25 05:12:23;;;;;;;22.17;13.32;;;9.50;99.90;;;;;;5042285;28;20037;-82
2021/10/25 05:14:49;;;;;;;23.63;12.75;;;9.50;99.90;;;;;;5041853;28;20017;-80
2021/10/25 05:17:15;;;;;;;17.23;12.75;;;9.50;99.90;;;;;;5041035;28;20044;-82
2021/10/25 05:19:42;;;;;;;20.65;11.90;;;9.50;99.90;;;;;;5040041;28;20025;-81
2021/10/25 05:22:08;;;;;;;19.92;12.45;;;9.40;99.90;;;;;;5025014;28;20385;-81
2021/10/25 05:24:34;;;;;;;19.00;12.63;;;9.50;99.90;;;;;;5044571;28;20088;-81
2021/10/25 05:26:59;;;;;;;18.73;12.63;;;9.50;99.90;;;;;;5039396;28;20049;-82
2021/10/25 05:29:25;;;;;;;23.83;12.98;;;9.40;99.90;;;;;;5035957;28;20052;-83
2021/10/25 05:31:51;;;;;;;23.63;12.05;;;9.40;99.90;;;;;;5033708;28;20049;-83
2021/10/25 05:34:16;;;;;;;27.25;13.82;;;9.40;99.90;;;;;;5037309;28;20029;-82
2021/10/25 05:36:42;;;;;;;24.33;12.13;;;9.40;99.90;;;;;;5034351;28;20072;-83
2021/10/25 05:39:10;;;;;;;18.85;11.63;;;9.40;99.90;;;;;;5036692;28;20474;-83
2021/10/25 05:41:40;;;;;;;21.52;12.00;;;9.40;99.90;;;;;;5037096;28;20031;-83
2021/10/25 05:44:06;;;;;;;20.20;12.88;;;9.40;99.90;;;;;;5036936;28;20040;-84
2021/10/25 05:46:32;;;;;;;18.90;12.50;;;9.40;99.90;;;;;;5034948;28;20444;-84
2021/10/25 05:48:58;;;;;;;20.65;11.38;;;9.40;99.90;;;;;;5036660;28;20045;-84
2021/10/25 05:51:24;;;;;;;18.63;11.50;;;9.40;99.90;;;;;;5035734;28;20068;-84
2021/10/25 05:53:50;;;;;;;22.50;13.05;;;9.40;99.90;;;;;;5036063;28;20017;-83
2021/10/25 05:56:16;;;;;;;22.85;13.23;;;9.30;99.90;;;;;;5035681;28;20458;-84
2021/10/25 05:58:42;;;;;;;23.55;11.98;;;9.30;99.90;;;;;;5033988;28;20029;-83
2021/10/25 06:01:13;;;;;;;23.08;13.15;;;9.30;99.90;;;;;;5034455;28;20536;-83
2021/10/25 06:03:43;;;;;;;28.48;12.80;;;10.00;99.90;;;;;;5035062;28;20036;-84
2021/10/25 06:06:09;;;;;;;22.70;12.60;;;9.40;99.90;;;;;;5035648;28;20358;-83
2021/10/25 06:08:35;;;;;;;20.63;12.75;;;9.30;99.90;;;;;;5036847;28;20018;-83
2021/10/25 06:11:01;;;;;;;17.58;12.32;;;9.40;99.90;;;;;;5035864;28;20056;-83
2021/10/25 06:13:36;;;;;;;20.83;13.90;;;9.40;99.90;;;;;;5036764;28;20030;-83
2021/10/25 06:16:24;;;;;;;17.92;12.25;;;9.30;99.90;;;;;;5034483;28;20104;-79
2021/10/25 06:18:50;;;;;;;18.58;12.15;;;9.40;99.90;;;;;;5032154;28;20024;-78
2021/10/25 06:21:16;;;;;;;23.27;12.32;;;9.40;99.90;;;;;;5035446;28;20018;-80
2021/10/25 06:23:42;;;;;;;20.48;12.63;;;9.40;99.90;;;;;;5033040;28;20021;-79
2021/10/25 06:26:08;;;;;;;19.50;11.85;;;9.30;99.90;;;;;;5033182;28;20480;-79
2021/10/25 06:28:36;;;;;;;19.88;11.38;;;9.40;99.90;;;;;;5031879;28;20041;-79
2021/10/25 06:31:05;;;;;;;22.15;12.48;;;9.40;99.90;;;;;;5034973;28;20481;-80
2021/10/25 06:33:37;;;;;;;22.23;12.55;;;9.40;99.90;;;;;;5031428;28;20049;-79
2021/10/25 06:36:05;;;;;;;25.60;13.27;;;9.40;99.90;;;;;;5036771;28;20037;-84
2021/10/25 06:38:35;;;;;;;24.25;13.85;;;9.40;99.90;;;;;;5035467;28;20022;-82
2021/10/25 06:41:02;;;;;;;25.88;13.75;;;9.40;99.90;;;;;;5034180;28;20030;-79
2021/10/25 06:43:28;;;;;;;25.58;14.43;;;9.50;99.90;;;;;;5031596;28;20042;-76
2021/10/25 06:45:54;;;;;;;24.85;14.95;;;9.50;99.90;;;;;;5032790;28;20458;-80
2021/10/25 06:48:21;;;;;;;27.55;15.40;;;9.50;99.90;;;;;;5035920;28;20385;-82
2021/10/25 06:50:47;;;;;;;26.92;16.95;;;9.50;99.90;;;;;;5038504;28;20120;-76
2021/10/25 06:53:14;;;;;;;28.10;16.90;;;9.50;99.90;;;;;;5035886;28;20485;-77
2021/10/25 06:55:40;;;;;;;32.20;17.67;;;9.60;99.90;;;;;;5033823;28;20025;-77
2021/10/25 06:58:07;;;;;;;28.20;16.65;;;9.60;99.90;;;;;;5033862;28;20021;-78
2021/10/25 07:00:33;;;;;;;30.52;16.92;;;9.60;99.90;;;;;;5034878;28;20026;-78
2021/10/25 07:02:59;;;;;;;33.17;19.17;;;9.60;99.90;;;;;;5034861;28;20048;-77
2021/10/25 07:05:25;;;;;;;35.47;20.77;;;9.60;99.90;;;;;;5035370;28;20477;-76
2021/10/25 07:07:51;;;;;;;33.95;19.88;;;9.70;99.90;;;;;;5034767;28;20028;-76
2021/10/25 07:10:17;;;;;;;37.08;21.52;;;9.60;99.90;;;;;;5034287;28;20033;-77
2021/10/25 07:12:44;;;;;;;36.65;21.75;;;9.70;99.90;;;;;;5034305;28;20359;-76
2021/10/25 07:15:10;;;;;;;40.75;24.17;;;9.70;99.90;;;;;;5033991;28;20022;-78
2021/10/25 07:17:42;;;;;;;39.97;22.30;;;9.70;99.90;;;;;;5034746;28;20167;-76
2021/10/25 07:20:23;;;;;;;41.03;25.20;;;9.80;99.90;;;;;;5033705;28;20026;-76
2021/10/25 08:11:06;;;;;;;30.83;19.42;;;10.20;99.90;;;;;;5030918;28;20061;-83
2021/10/25 08:13:38;;;;;;;28.67;19.10;;;10.10;99.90;;;;;;5023785;28;20072;-83
2021/10/25 08:21:19;;;;;;;34.20;18.58;;;10.10;99.90;;;;;;5024782;28;20115;-82
2021/10/25 08:23:45;;;;;;;29.13;19.17;;;10.20;99.90;;;;;;5022342;28;20026;-81
2021/10/25 08:26:11;;;;;;;26.60;16.83;;;9.60;99.90;;;;;;5024086;28;20291;-81
2021/10/25 08:28:37;;;;;;;27.88;16.20;;;10.10;99.90;;;;;;5024679;28;20470;-81
2021/10/25 08:31:05;;;;;;;23.55;16.45;;;10.10;99.90;;;;;;5030495;28;20401;-81
2021/10/25 08:41:36;;;;;;;25.33;16.35;;;10.30;99.90;;;;;;5023604;28;20074;-82
2021/10/25 08:44:06;;;;;;;24.08;14.82;;;10.40;99.90;;;;;;5026081;28;20025;-82
2021/10/25 08:46:32;;;;;;;28.27;15.10;;;10.40;99.90;;;;;;5029705;28;20041;-82
2021/10/25 08:49:03;;;;;;;23.35;15.90;;;10.50;99.90;;;;;;5023270;28;20022;-81
2021/10/25 08:51:29;;;;;;;24.00;15.10;;;10.50;99.90;;;;;;5019528;28;20033;-84
2021/10/25 08:53:58;;;;;;;19.98;13.70;;;10.50;99.90;;;;;;5022555;28;20033;-83
2021/10/25 08:56:23;;;;;;;21.50;14.32;;;11.60;99.90;;;;;;5028960;28;20110;-83
2021/10/25 08:58:50;;;;;;;22.35;13.60;;;10.60;99.90;;;;;;5027690;28;20171;-82
2021/10/25 09:01:25;;;;;;;25.65;14.15;;;10.70;99.90;;;;;;5022653;28;20034;-80
2021/10/25 09:04:08;;;;;;;22.10;14.18;;;10.70;99.90;;;;;;5027369;28;20057;-82
2021/10/25 09:06:55;;;;;;;20.10;13.70;;;10.70;99.90;;;;;;5024864;28;20108;-82
2021/10/25 09:09:22;;;;;;;20.25;14.00;;;10.80;99.90;;;;;;5019516;28;20029;-82
2021/10/25 09:12:07;;;;;;;25.55;14.70;;;10.80;99.90;;;;;;5020033;28;20063;-82
2021/10/25 09:14:33;;;;;;;26.17;13.43;;;10.90;99.90;;;;;;5020074;28;20018;-83
2021/10/25 09:17:07;;;;;;;23.33;14.48;;;10.90;99.90;;;;;;5025367;28;20051;-82
2021/10/25 09:19:35;;;;;;;20.77;14.50;;;11.00;99.90;;;;;;5031462;28;20024;-84
2021/10/25 09:22:15;;;;;;;28.23;14.52;;;11.10;99.90;;;;;;5020633;28;20028;-83
2021/10/25 09:24:53;;;;;;;24.95;16.33;;;11.10;99.90;;;;;;5024740;28;20100;-83
2021/10/25 09:27:34;;;;;;;19.92;15.05;;;11.20;99.90;;;;;;5023559;28;20036;-83
2021/10/25 09:30:21;;;;;;;25.92;15.85;;;11.30;99.90;;;;;;5023455;28;20022;-83
2021/10/25 09:32:47;;;;;;;27.35;16.65;;;11.30;99.90;;;;;;5030872;28;20050;-82
2021/10/25 09:35:29;;;;;;;22.73;16.98;;;11.30;99.90;;;;;;5028599;28;20026;-83
2021/10/25 09:38:06;;;;;;;28.75;16.45;;;11.30;99.90;;;;;;5024023;28;20029;-83
2021/10/25 09:46:35;;;;;;;35.47;20.13;;;11.40;99.90;;;;;;4952108;29;20563;-84
2021/10/25 09:49:08;;;;;;;29.13;19.23;;;11.40;99.90;;;;;;4952028;28;20062;-83
2021/10/25 09:51:38;;;;;;;34.47;21.48;;;11.40;99.90;;;;;;4999266;28;20055;-83
2021/10/25 09:54:05;;;;;;;33.67;22.20;;;11.50;99.90;;;;;;5022502;28;20034;-84
2021/10/25 09:56:32;;;;;;;37.03;22.17;;;11.60;99.90;;;;;;5022993;28;20411;-83
2021/10/25 09:59:08;;;;;;;36.88;22.83;;;11.60;99.90;;;;;;5019854;28;20075;-84
2021/10/25 10:01:36;;;;;;;38.78;24.35;;;11.70;99.90;;;;;;5027443;28;20029;-84
2021/10/25 10:04:03;;;;;;;34.83;22.67;;;11.70;99.90;;;;;;5029270;28;20026;-83
2021/10/25 10:06:28;;;;;;;33.05;22.65;;;11.70;99.90;;;;;;5029210;28;20484;-83
2021/10/25 10:08:55;;;;;;;35.05;22.80;;;11.70;99.90;;;;;;5018419;28;20056;-79
2021/10/25 10:11:21;;;;;;;37.38;23.85;;;11.70;99.90;;;;;;5023926;28;20125;-81
2021/10/25 10:13:50;;;;;;;33.28;23.42;;;11.80;99.90;;;;;;5028439;28;20072;-82
2021/10/25 10:16:17;;;;;;;33.47;22.70;;;11.80;99.90;;;;;;5018890;28;20076;-82
2021/10/25 10:18:47;;;;;;;34.40;24.40;;;11.90;99.90;;;;;;5029782;28;20029;-82
2021/10/25 10:21:14;;;;;;;35.53;23.75;;;11.90;99.90;;;;;;5029516;28;20026;-82
2021/10/25 10:23:44;;;;;;;31.70;22.83;;;12.00;99.90;;;;;;5027690;28;20025;-82
2021/10/25 10:26:16;;;;;;;32.77;22.60;;;12.00;99.90;;;;;;5033504;28;20519;-81
2021/10/25 10:28:50;;;;;;;30.52;22.05;;;12.10;99.90;;;;;;5025067;28;20026;-80
2021/10/25 10:31:24;;;;;;;30.38;21.25;;;12.10;99.90;;;;;;5030944;28;20046;-84
2021/10/25 10:33:57;;;;;;;30.85;21.45;;;12.20;99.90;;;;;;5031855;28;20048;-83
2021/10/25 10:36:27;;;;;;;29.80;20.90;;;12.20;99.90;;;;;;5030446;28;20034;-83
2021/10/25 10:39:08;;;;;;;27.83;19.65;;;12.20;99.90;;;;;;5031395;28;20104;-85
2021/10/25 10:41:35;;;;;;;;;;;12.20;99.90;;;;;;5029416;28;20065;-85
2021/10/25 10:44:05;;;;;;;29.80;21.33;;;12.20;99.90;;;;;;5032588;28;19943;-84
2021/10/25 10:47:08;;;;;;;27.55;20.10;;;12.20;99.90;;;;;;5028172;28;20029;-85
2021/10/25 10:49:39;;;;;;;26.95;21.48;;;12.20;99.90;;;;;;5023757;28;20022;-85
2021/10/25 10:52:22;;;;;;;27.92;20.25;;;12.30;99.90;;;;;;5025361;28;20040;-85
2021/10/25 10:55:27;;;;;;;31.15;21.38;;;12.30;99.90;;;;;;5030472;28;20029;-84
2021/10/25 11:00:25;;;;;;;29.45;18.70;;;12.40;99.90;;;;;;5036624;28;20028;-84
2021/10/25 11:02:58;;;;;;;33.17;21.50;;;12.50;99.90;;;;;;5028918;28;20021;-84
2021/10/25 11:05:45;;;;;;;33.25;20.65;;;12.50;99.90;;;;;;5029425;28;20112;-84
2021/10/25 11:08:20;;;;;;;34.50;21.23;;;12.50;99.90;;;;;;5022383;28;20053;-85
2021/10/25 11:10:48;;;;;;;30.70;19.83;;;12.50;99.90;;;;;;5034573;28;20033;-84
2021/10/25 11:13:20;;;;;;;32.05;20.05;;;12.50;99.90;;;;;;5035641;28;20034;-82
2021/10/25 11:16:20;;;;;;;28.30;20.00;;;12.50;99.90;;;;;;5034117;28;20056;-83
2021/10/25 11:18:51;;;;;;;27.90;18.95;;;12.50;99.90;;;;;;5032853;28;20029;-82
2021/10/25 11:21:21;;;;;;;29.95;20.38;;;12.50;99.90;;;;;;5031958;28;20029;-82
2021/10/25 11:23:54;;;;;;;27.88;19.73;;;12.50;99.90;;;;;;5034371;28;20025;-82
2021/10/25 11:26:23;;;;;;;25.00;18.45;;;12.60;99.90;;;;;;5035197;28;20030;-83
2021/10/25 11:29:05;;;;;;;26.95;19.58;;;12.60;99.90;;;;;;5034727;28;20025;-83
2021/10/25 11:31:38;;;;;;;23.67;18.35;;;12.60;99.90;;;;;;5034525;28;20037;-83
2021/10/25 11:34:12;;;;;;;25.55;17.92;;;12.70;99.90;;;;;;5035534;28;20052;-82
2021/10/25 11:36:59;;;;;;;27.60;19.05;;;12.70;99.90;;;;;;5036777;28;20116;-82
2021/10/25 11:39:45;;;;;;;34.13;19.58;;;12.70;99.90;;;;;;5033497;28;20033;-81
2021/10/25 11:42:14;;;;;;;30.98;19.23;;;12.70;99.90;;;;;;5030466;28;20025;-82
2021/10/25 11:44:42;;;;;;;32.53;19.50;;;12.70;99.90;;;;;;5034195;28;20530;-83
2021/10/25 11:47:28;;;;;;;34.47;20.90;;;12.70;99.90;;;;;;5034772;28;20029;-81
2021/10/25 11:50:06;;;;;;;29.90;21.58;;;12.70;99.90;;;;;;5034367;28;20033;-82
2021/10/25 11:52:52;;;;;;;33.45;21.75;;;12.80;99.90;;;;;;5035068;28;20520;-81
2021/10/25 11:55:25;;;;;;;33.42;20.98;;;12.80;99.90;;;;;;5030957;28;20091;-81
2021/10/25 11:57:56;;;;;;;28.90;21.15;;;12.80;99.90;;;;;;5033678;28;20072;-81
2021/10/25 12:00:25;;;;;;;27.65;20.50;;;12.80;99.90;;;;;;5033507;28;20045;-81
2021/10/25 12:02:53;;;;;;;29.33;20.98;;;12.70;99.90;;;;;;5032922;28;20088;-80
2021/10/25 12:05:23;;;;;;;29.35;20.50;;;12.70;99.90;;;;;;5033166;28;20033;-80
2021/10/25 12:07:51;;;;;;;26.27;19.83;;;12.70;99.90;;;;;;5034049;28;20067;-80
2021/10/25 12:10:18;;;;;;;29.77;21.33;;;12.70;99.90;;;;;;5033809;28;20028;-80
2021/10/25 12:12:44;;;;;;;28.20;19.90;;;12.80;99.90;;;;;;5033137;28;20507;-81
2021/10/25 12:15:15;;;;;;;29.08;20.95;;;12.80;99.90;;;;;;5032485;28;20112;-81
2021/10/25 12:17:41;;;;;;;30.80;20.27;;;12.90;99.90;;;;;;5032042;28;20120;-80
2021/10/25 12:20:11;;;;;;;26.30;20.73;;;13.00;99.90;;;;;;5032423;28;20068;-80
2021/10/25 12:22:38;;;;;;;26.50;19.35;;;12.90;99.90;;;;;;5034117;28;20025;-79
2021/10/25 12:25:04;;;;;;;26.20;21.20;;;12.90;99.90;;;;;;5032363;28;20028;-80
2021/10/25 12:27:38;;;;;;;23.10;19.33;;;12.80;99.90;;;;;;5033879;28;20029;-80
2021/10/25 12:30:14;;;;;;;26.65;20.60;;;12.80;99.90;;;;;;5032606;28;20030;-80
2021/10/25 12:32:50;;;;;;;29.27;20.48;;;12.90;99.90;;;;;;5023010;28;20088;-81
2021/10/25 12:35:16;;;;;;;29.98;20.85;;;12.80;99.90;;;;;;5018517;28;20067;-80
2021/10/25 12:37:41;;;;;;;27.05;20.52;;;12.90;99.90;;;;;;5024944;28;20105;-81
2021/10/25 12:40:18;;;;;;;31.38;22.80;;;13.00;99.90;;;;;;5022426;28;20017;-81
2021/10/25 12:42:44;;;;;;;26.05;21.30;;;13.10;99.90;;;;;;5031591;28;20087;-81
2021/10/25 12:45:15;;;;;;;26.05;20.13;;;13.20;99.90;;;;;;5021081;28;20549;-81
2021/10/25 12:47:41;;;;;;;27.77;20.55;;;13.30;99.90;;;;;;5024896;28;20022;-81
2021/10/25 12:50:11;;;;;;;31.15;20.88;;;13.30;99.90;;;;;;5029666;28;20017;-82
2021/10/25 12:52:36;;;;;;;26.47;20.77;;;13.40;99.90;;;;;;5024069;28;20095;-81
2021/10/25 12:55:03;;;;;;;22.35;19.08;;;13.50;99.90;;;;;;5022220;28;20285;-81
2021/10/25 12:57:32;;;;;;;26.50;19.88;;;13.60;99.90;;;;;;5029086;28;20037;-82
2021/10/25 12:59:59;;;;;;;23.98;19.77;;;13.60;99.90;;;;;;5027414;28;20024;-82
2021/10/25 13:02:27;;;;;;;24.08;18.88;;;13.60;99.90;;;;;;5030366;28;20053;-83
2021/10/25 13:05:12;;;;;;;28.10;20.88;;;13.50;99.90;;;;;;5025923;28;20036;-83
2021/10/25 13:07:50;;;;;;;25.88;19.70;;;13.40;99.90;;;;;;5024874;28;20071;-83
2021/10/25 13:10:18;;;;;;;25.67;20.60;;;13.40;99.90;;;;;;5027944;28;20017;-83
2021/10/25 13:12:44;;;;;;;27.63;20.95;;;13.30;99.90;;;;;;5030266;28;20033;-83
2021/10/25 13:15:10;;;;;;;34.15;20.08;;;13.20;99.90;;;;;;5030694;28;20468;-83
2021/10/25 13:17:35;;;;;;;28.05;21.70;;;13.20;99.90;;;;;;5031730;28;20508;-83
2021/10/25 13:20:01;;;;;;;29.95;21.88;;;13.10;99.90;;;;;;5032872;28;20032;-82
2021/10/25 13:22:29;;;;;;;30.23;21.63;;;13.10;99.90;;;;;;5030606;28;20025;-83
2021/10/25 13:24:56;;;;;;;30.08;21.67;;;13.10;99.90;;;;;;5032144;28;20500;-83
2021/10/25 13:27:22;;;;;;;25.88;21.33;;;13.00;99.90;;;;;;5029717;28;20028;-83
2021/10/25 13:29:47;;;;;;;26.17;20.35;;;13.00;99.90;;;;;;5031155;28;20033;-83
2021/10/25 13:32:14;;;;;;;25.50;21.75;;;13.00;99.90;;;;;;5032341;28;20045;-83
2021/10/25 13:34:39;;;;;;;24.13;18.92;;;12.90;99.90;;;;;;5031525;28;20018;-82
2021/10/25 13:37:05;;;;;;;28.42;20.80;;;12.90;99.90;;;;;;5033923;28;20037;-83
2021/10/25 13:39:31;;;;;;;28.77;22.05;;;12.90;99.90;;;;;;5033251;28;20076;-84
2021/10/25 13:41:56;;;;;;;32.28;23.65;;;12.90;99.90;;;;;;5032108;28;20061;-82
2021/10/25 13:44:22;;;;;;;32.88;23.38;;;12.90;99.90;;;;;;5031710;28;20049;-81
2021/10/25 13:46:48;;;;;;;32.78;23.85;;;12.90;99.90;;;;;;5031834;28;20025;-83
2021/10/25 13:49:13;;;;;;;31.17;23.52;;;12.90;99.90;;;;;;5021101;28;20045;-81
2021/10/25 13:51:39;;;;;;;29.77;24.67;;;12.90;99.90;;;;;;5030168;28;20033;-81
2021/10/25 13:54:06;;;;;;;32.30;22.50;;;12.90;99.90;;;;;;5035929;28;20362;-82
2021/10/25 13:56:31;;;;;;;34.40;23.17;;;13.00;99.90;;;;;;5036345;28;20030;-82
2021/10/25 13:58:57;;;;;;;40.60;25.27;;;13.00;99.90;;;;;;5036949;28;20029;-82
2021/10/25 14:01:23;;;;;;;43.50;25.60;;;13.10;99.90;;;;;;5037824;28;20034;-81
2021/10/25 14:03:52;;;;;;;36.50;25.17;;;13.00;99.90;;;;;;5036140;28;20013;-81
2021/10/25 14:06:20;;;;;;;31.35;22.85;;;14.20;99.90;;;;;;5036073;28;20083;-82
2021/10/25 14:08:48;;;;;;;32.40;24.38;;;13.20;99.90;;;;;;5037979;28;20021;-83
2021/10/25 14:11:13;;;;;;;31.92;23.35;;;13.30;99.90;;;;;;5033369;28;20025;-81
2021/10/25 14:18:47;;;;;;;30.67;23.33;;;13.40;99.90;;;;;;5035923;28;20026;-83
2021/10/25 14:21:19;;;;;;;28.95;21.98;;;13.40;99.90;;;;;;5036088;28;20025;-83
2021/10/25 14:23:46;;;;;;;33.65;22.83;;;13.50;99.90;;;;;;5035314;28;20417;-82
2021/10/25 14:26:13;;;;;;;29.17;23.17;;;13.40;99.90;;;;;;5035647;28;20354;-82
2021/10/25 14:28:41;;;;;;;29.15;22.00;;;13.50;99.90;;;;;;5036456;28;20104;-83